Flight Track Log - Related Links

Times and Time Zones

All times are in EDT time to prevent confusion due to time zone crossing. See the DLH2703 flight status page for this flight to view local times or setup timezone preferences in your user account.

Time Position Orientation Groundspeed Altitude Reporting Facility
EDT Latitude Longitude Course Direction KTS MPH feet Rate Location/Type
Tue 02:28:00 AM 52.9051 8.9398 221° Southwest  Level Estimated
Tue 02:29:00 AM 52.8387 8.8462 220° Southwest  Level Estimated
Tue 02:30:00 AM 52.7723 8.7529 220° Southwest  Level Estimated
Tue 02:31:00 AM 52.7057 8.6599 220° Southwest  Level Estimated
Tue 02:32:00 AM 52.6391 8.5672 220° Southwest  Level Estimated
Tue 02:33:00 AM 52.5724 8.4748 220° Southwest  Level Estimated
Tue 02:34:00 AM 52.5057 8.3826 220° Southwest  Level Estimated
Tue 02:35:00 AM 52.4389 8.2907 220° Southwest  Level Estimated
Tue 02:36:00 AM 52.3720 8.1992 220° Southwest  Level Estimated
Tue 02:37:00 AM 52.3050 8.1078 220° Southwest  Level Estimated
Tue 02:38:00 AM 52.2380 8.0168 220° Southwest  Level Estimated
Tue 02:39:00 AM 52.1709 7.9260 220° Southwest  Level Estimated
Tue 02:40:00 AM 52.1037 7.8355 220° Southwest  Level Estimated
Tue 02:41:00 AM 52.0365 7.7453 220° Southwest  Level Estimated
Tue 02:42:00 AM 51.9692 7.6554 219° Southwest  Level Estimated
Tue 02:43:00 AM 51.9018 7.5657 219° Southwest  Level Estimated
Tue 02:44:00 AM 51.8344 7.4763 219° Southwest  Level Estimated
Tue 02:45:00 AM 51.7668 7.3871 219° Southwest  Level Estimated
Tue 02:46:00 AM 51.6993 7.2983 219° Southwest  Level Estimated
Tue 02:47:00 AM 51.6316 7.2097 219° Southwest  Level Estimated
Tue 02:48:00 AM 51.5639 7.1213 219° Southwest  Level Estimated
Tue 02:49:00 AM 51.4961 7.0332 219° Southwest  Level Estimated
Tue 02:50:00 AM 51.4283 6.9454 219° Southwest  Level Estimated
Tue 02:51:00 AM 51.3604 6.8578 219° Southwest  Level Estimated
Tue 02:52:00 AM 51.2924 6.7705 219° Southwest  Level Estimated
Tue 02:53:00 AM 51.2895 6.7668 219° Southwest  Level Estimated
Tue 02:54:00 AM 51.2895 6.7668 314° West  Level Estimated
Tue 02:55:00 AM 51.2895 6.7668 46° Northeast  Level Estimated
Tue 02:56:00 AM 51.2895 6.7668 314° West  Level Estimated
Tue 02:57:00 AM 51.2895 6.7668 46° Northeast  Level Estimated
Tue 02:58:00 AM 51.2895 6.7668 314° West  Level Estimated
Tue 02:59:00 AM 51.2895 6.7668 46° Northeast  Level Estimated
Tue 03:00:00 AM 51.2895 6.7668 314° West  Level Estimated
Tue 03:01:00 AM 51.2895 6.7668 46° Northeast  Level Estimated
Tue 03:02:00 AM 51.2895 6.7668 314° West  Level Estimated
Tue 03:03:00 AM 51.2895 6.7668 46° Northeast  Level Estimated
Tue 03:04:00 AM 51.2895 6.7668 314° West  Level Estimated
Tue 03:05:00 AM 51.2895 6.7668 46° Northeast  Level Estimated
Tue 03:06:00 AM 51.2895 6.7668 314° West  Level Estimated
Tue 03:07:00 AM 51.2895 6.7668 46° Northeast  Level Estimated
Tue 03:08:00 AM 51.2895 6.7668 314° West  Level Estimated

Login

Don't have an account? Register now (free) for customized features, flight alerts, and more!